sensor_id;sensor_type;location;lat;lon;timestamp;pressure;altitude;pressure_sealevel;temperature;humidity
44457;BME280;30159;49.316;8.558;2022-11-15T00:01:19;100154.22;;;10.83;100.00
44457;BME280;30159;49.316;8.558;2022-11-15T00:03:45;100151.06;;;10.76;100.00
44457;BME280;30159;49.316;8.558;2022-11-15T00:06:12;100143.78;;;10.76;100.00
44457;BME280;30159;49.316;8.558;2022-11-15T00:08:39;100151.41;;;10.69;100.00
44457;BME280;30159;49.316;8.558;2022-11-15T00:11:05;100143.09;;;10.66;100.00
44457;BME280;30159;49.316;8.558;2022-11-15T00:13:32;100145.09;;;10.79;100.00
44457;BME280;30159;49.316;8.558;2022-11-15T00:15:59;100142.13;;;10.81;100.00
44457;BME280;30159;49.316;8.558;2022-11-15T00:18:28;100141.25;;;10.85;100.00
44457;BME280;30159;49.316;8.558;2022-11-15T00:20:55;100142.88;;;10.86;100.00
44457;BME280;30159;49.316;8.558;2022-11-15T00:23:22;100151.13;;;10.95;100.00
44457;BME280;30159;49.316;8.558;2022-11-15T00:25:55;100100.81;;;10.61;100.00
44457;BME280;30159;49.316;8.558;2022-11-15T00:28:21;100133.22;;;10.80;100.00
44457;BME280;30159;49.316;8.558;2022-11-15T00:30:48;100112.56;;;10.70;100.00
44457;BME280;30159;49.316;8.558;2022-11-15T00:33:15;100133.69;;;10.87;100.00
44457;BME280;30159;49.316;8.558;2022-11-15T00:35:43;100133.97;;;10.86;100.00
44457;BME280;30159;49.316;8.558;2022-11-15T00:38:09;100129.38;;;10.86;100.00
44457;BME280;30159;49.316;8.558;2022-11-15T00:40:36;100138.84;;;10.84;100.00
44457;BME280;30159;49.316;8.558;2022-11-15T00:43:02;100126.31;;;10.93;100.00
44457;BME280;30159;49.316;8.558;2022-11-15T00:45:29;100121.16;;;10.96;100.00
44457;BME280;30159;49.316;8.558;2022-11-15T00:47:55;100115.31;;;10.89;100.00
44457;BME280;30159;49.316;8.558;2022-11-15T00:50:22;100107.28;;;10.84;100.00
44457;BME280;30159;49.316;8.558;2022-11-15T00:52:49;100117.22;;;10.89;100.00
44457;BME280;30159;49.316;8.558;2022-11-15T00:55:17;100097.97;;;10.71;100.00
44457;BME280;30159;49.316;8.558;2022-11-15T00:57:44;100124.91;;;10.76;100.00
44457;BME280;30159;49.316;8.558;2022-11-15T01:00:11;100117.09;;;10.75;100.00
44457;BME280;30159;49.316;8.558;2022-11-15T01:02:38;100119.56;;;10.71;100.00
44457;BME280;30159;49.316;8.558;2022-11-15T01:05:06;100115.59;;;10.64;100.00
44457;BME280;30159;49.316;8.558;2022-11-15T01:07:32;100119.28;;;10.73;100.00
44457;BME280;30159;49.316;8.558;2022-11-15T01:10:00;100115.41;;;10.79;100.00
44457;BME280;30159;49.316;8.558;2022-11-15T01:12:27;100109.16;;;10.84;100.00
44457;BME280;30159;49.316;8.558;2022-11-15T01:14:54;100111.91;;;10.79;100.00
44457;BME280;30159;49.316;8.558;2022-11-15T01:17:20;100108.16;;;10.80;100.00
44457;BME280;30159;49.316;8.558;2022-11-15T01:19:47;100105.44;;;10.80;100.00
44457;BME280;30159;49.316;8.558;2022-11-15T01:22:13;100110.44;;;10.67;100.00
44457;BME280;30159;49.316;8.558;2022-11-15T01:24:40;100092.59;;;10.47;100.00
44457;BME280;30159;49.316;8.558;2022-11-15T01:27:08;100079.19;;;10.37;100.00
44457;BME280;30159;49.316;8.558;2022-11-15T01:29:34;100092.88;;;10.46;100.00
44457;BME280;30159;49.316;8.558;2022-11-15T01:32:01;100094.03;;;10.40;100.00
44457;BME280;30159;49.316;8.558;2022-11-15T01:34:27;100089.81;;;10.28;100.00
44457;BME280;30159;49.316;8.558;2022-11-15T01:36:54;100087.47;;;10.17;100.00
44457;BME280;30159;49.316;8.558;2022-11-15T01:39:20;100083.41;;;10.19;100.00
44457;BME280;30159;49.316;8.558;2022-11-15T01:41:47;100094.25;;;10.14;100.00
44457;BME280;30159;49.316;8.558;2022-11-15T01:44:39;100086.44;;;10.12;100.00
44457;BME280;30159;49.316;8.558;2022-11-15T01:47:09;100074.94;;;10.02;100.00
44457;BME280;30159;49.316;8.558;2022-11-15T01:49:39;100085.63;;;10.12;100.00
44457;BME280;30159;49.316;8.558;2022-11-15T01:52:09;100086.75;;;10.06;100.00
44457;BME280;30159;49.316;8.558;2022-11-15T01:54:37;100084.72;;;9.92;100.00
44457;BME280;30159;49.316;8.558;2022-11-15T01:57:08;100076.88;;;9.96;100.00
44457;BME280;30159;49.316;8.558;2022-11-15T01:59:37;100081.44;;;10.01;100.00
44457;BME280;30159;49.316;8.558;2022-11-15T02:02:05;100026.16;;;9.74;100.00
44457;BME280;30159;49.316;8.558;2022-11-15T02:04:34;100071.16;;;10.03;100.00
44457;BME280;30159;49.316;8.558;2022-11-15T02:07:03;100078.72;;;10.01;100.00
44457;BME280;30159;49.316;8.558;2022-11-15T02:09:31;100068.53;;;9.92;100.00
44457;BME280;30159;49.316;8.558;2022-11-15T02:11:59;100070.91;;;9.99;100.00
44457;BME280;30159;49.316;8.558;2022-11-15T02:14:26;100037.41;;;9.81;100.00
44457;BME280;30159;49.316;8.558;2022-11-15T02:16:59;100062.47;;;10.11;100.00
44457;BME280;30159;49.316;8.558;2022-11-15T02:19:53;100057.31;;;10.15;100.00
44457;BME280;30159;49.316;8.558;2022-11-15T02:22:37;100049.38;;;10.28;100.00
44457;BME280;30159;49.316;8.558;2022-11-15T02:25:24;100047.72;;;10.32;100.00
44457;BME280;30159;49.316;8.558;2022-11-15T02:28:10;100033.63;;;10.41;100.00
44457;BME280;30159;49.316;8.558;2022-11-15T02:30:45;100032.22;;;10.43;100.00
44457;BME280;30159;49.316;8.558;2022-11-15T02:33:23;100029.81;;;10.42;100.00
44457;BME280;30159;49.316;8.558;2022-11-15T02:35:58;100029.59;;;10.38;100.00
44457;BME280;30159;49.316;8.558;2022-11-15T02:38:31;99986.22;;;10.10;100.00
44457;BME280;30159;49.316;8.558;2022-11-15T02:41:02;100019.75;;;10.28;100.00
44457;BME280;30159;49.316;8.558;2022-11-15T02:43:37;100013.84;;;10.21;100.00
44457;BME280;30159;49.316;8.558;2022-11-15T02:46:29;100017.63;;;10.20;100.00
44457;BME280;30159;49.316;8.558;2022-11-15T02:49:15;100011.69;;;10.23;100.00
44457;BME280;30159;49.316;8.558;2022-11-15T02:51:44;100006.28;;;10.23;100.00
44457;BME280;30159;49.316;8.558;2022-11-15T02:54:12;100001.06;;;10.08;100.00
44457;BME280;30159;49.316;8.558;2022-11-15T02:56:40;100001.06;;;10.08;100.00
44457;BME280;30159;49.316;8.558;2022-11-15T02:59:18;99911.66;;;9.53;100.00
44457;BME280;30159;49.316;8.558;2022-11-15T03:02:00;100011.56;;;10.09;100.00
44457;BME280;30159;49.316;8.558;2022-11-15T03:04:37;99997.22;;;10.14;100.00
44457;BME280;30159;49.316;8.558;2022-11-15T03:07:11;99999.88;;;10.19;100.00
44457;BME280;30159;49.316;8.558;2022-11-15T03:09:42;100002.50;;;10.24;100.00
44457;BME280;30159;49.316;8.558;2022-11-15T03:12:14;99994.38;;;10.29;100.00
44457;BME280;30159;49.316;8.558;2022-11-15T03:14:49;99991.72;;;10.24;100.00
44457;BME280;30159;49.316;8.558;2022-11-15T03:17:24;99993.88;;;10.22;100.00
44457;BME280;30159;49.316;8.558;2022-11-15T03:19:54;99998.03;;;10.15;100.00
44457;BME280;30159;49.316;8.558;2022-11-15T03:22:24;99953.88;;;9.86;100.00
44457;BME280;30159;49.316;8.558;2022-11-15T03:24:53;99988.72;;;10.02;100.00
44457;BME280;30159;49.316;8.558;2022-11-15T03:27:22;99989.81;;;10.01;100.00
44457;BME280;30159;49.316;8.558;2022-11-15T03:29:52;99999.50;;;10.02;100.00
44457;BME280;30159;49.316;8.558;2022-11-15T03:32:25;99986.44;;;10.14;100.00
44457;BME280;30159;49.316;8.558;2022-11-15T03:34:56;99989.03;;;10.24;100.00
44457;BME280;30159;49.316;8.558;2022-11-15T03:37:29;99986.00;;;10.31;100.00
44457;BME280;30159;49.316;8.558;2022-11-15T03:39:56;99977.00;;;10.41;100.00
44457;BME280;30159;49.316;8.558;2022-11-15T03:42:27;99987.94;;;10.49;100.00
44457;BME280;30159;49.316;8.558;2022-11-15T03:44:59;99985.41;;;10.58;100.00
44457;BME280;30159;49.316;8.558;2022-11-15T03:47:32;99986.34;;;10.67;100.00
44457;BME280;30159;49.316;8.558;2022-11-15T03:50:03;99973.31;;;10.74;100.00
44457;BME280;30159;49.316;8.558;2022-11-15T03:52:33;99970.63;;;10.74;100.00
44457;BME280;30159;49.316;8.558;2022-11-15T03:55:01;99980.25;;;10.81;100.00
44457;BME280;30159;49.316;8.558;2022-11-15T03:57:29;99985.06;;;10.84;100.00
44457;BME280;30159;49.316;8.558;2022-11-15T03:59:56;99981.78;;;10.87;100.00
44457;BME280;30159;49.316;8.558;2022-11-15T04:02:23;99986.25;;;10.96;100.00
44457;BME280;30159;49.316;8.558;2022-11-15T04:04:50;99983.75;;;11.00;100.00
44457;BME280;30159;49.316;8.558;2022-11-15T04:07:17;99977.47;;;11.05;100.00
44457;BME280;30159;49.316;8.558;2022-11-15T04:09:43;99976.91;;;11.08;100.00
44457;BME280;30159;49.316;8.558;2022-11-15T04:12:28;99966.91;;;11.08;100.00
44457;BME280;30159;49.316;8.558;2022-11-15T04:14:59;99976.59;;;11.09;100.00
44457;BME280;30159;49.316;8.558;2022-11-15T04:17:38;99967.63;;;11.14;100.00
44457;BME280;30159;49.316;8.558;2022-11-15T04:20:13;99964.63;;;11.15;100.00
44457;BME280;30159;49.316;8.558;2022-11-15T04:22:59;99969.44;;;11.18;100.00
44457;BME280;30159;49.316;8.558;2022-11-15T04:25:43;99941.97;;;10.97;100.00
44457;BME280;30159;49.316;8.558;2022-11-15T04:28:11;99984.03;;;11.17;100.00
44457;BME280;30159;49.316;8.558;2022-11-15T04:30:37;99983.34;;;11.26;100.00
44457;BME280;30159;49.316;8.558;2022-11-15T04:33:04;99982.19;;;11.32;100.00
44457;BME280;30159;49.316;8.558;2022-11-15T04:35:32;99976.38;;;11.25;100.00
44457;BME280;30159;49.316;8.558;2022-11-15T04:37:59;99971.56;;;11.22;100.00
44457;BME280;30159;49.316;8.558;2022-11-15T04:40:25;99969.81;;;11.31;100.00
44457;BME280;30159;49.316;8.558;2022-11-15T04:42:51;99965.13;;;11.36;100.00
44457;BME280;30159;49.316;8.558;2022-11-15T04:45:18;99970.09;;;11.29;100.00
44457;BME280;30159;49.316;8.558;2022-11-15T04:47:45;99961.94;;;11.15;100.00
44457;BME280;30159;49.316;8.558;2022-11-15T04:50:12;99947.00;;;11.04;100.00
44457;BME280;30159;49.316;8.558;2022-11-15T04:52:40;99955.38;;;11.22;100.00
44457;BME280;30159;49.316;8.558;2022-11-15T04:55:08;99949.38;;;11.25;100.00
44457;BME280;30159;49.316;8.558;2022-11-15T04:57:34;99928.91;;;11.05;100.00
44457;BME280;30159;49.316;8.558;2022-11-15T05:00:03;99940.75;;;11.23;100.00
44457;BME280;30159;49.316;8.558;2022-11-15T05:02:30;99950.13;;;11.11;100.00
44457;BME280;30159;49.316;8.558;2022-11-15T05:05:16;99936.50;;;11.03;100.00
44457;BME280;30159;49.316;8.558;2022-11-15T05:07:43;99923.50;;;11.05;100.00
44457;BME280;30159;49.316;8.558;2022-11-15T05:10:10;99898.44;;;10.85;100.00
44457;BME280;30159;49.316;8.558;2022-11-15T05:12:37;99953.31;;;11.13;100.00
44457;BME280;30159;49.316;8.558;2022-11-15T05:15:04;99941.31;;;11.06;100.00
44457;BME280;30159;49.316;8.558;2022-11-15T05:17:31;99928.25;;;11.13;100.00
44457;BME280;30159;49.316;8.558;2022-11-15T05:19:57;99929.53;;;11.15;100.00
44457;BME280;30159;49.316;8.558;2022-11-15T05:22:24;99938.75;;;11.14;100.00
44457;BME280;30159;49.316;8.558;2022-11-15T05:24:51;99933.50;;;11.04;100.00
44457;BME280;30159;49.316;8.558;2022-11-15T05:27:18;99949.53;;;10.95;100.00
44457;BME280;30159;49.316;8.558;2022-11-15T05:29:45;99937.06;;;11.00;100.00
44457;BME280;30159;49.316;8.558;2022-11-15T05:32:11;99935.91;;;11.06;100.00
44457;BME280;30159;49.316;8.558;2022-11-15T05:34:38;99944.00;;;11.06;100.00
44457;BME280;30159;49.316;8.558;2022-11-15T05:37:05;99946.47;;;11.02;100.00
44457;BME280;30159;49.316;8.558;2022-11-15T05:39:32;99945.47;;;10.98;100.00
44457;BME280;30159;49.316;8.558;2022-11-15T05:42:04;99940.78;;;11.04;100.00
44457;BME280;30159;49.316;8.558;2022-11-15T05:44:32;99928.78;;;10.96;100.00
44457;BME280;30159;49.316;8.558;2022-11-15T05:46:59;99934.19;;;10.96;100.00
44457;BME280;30159;49.316;8.558;2022-11-15T05:49:29;99944.22;;;10.90;100.00
44457;BME280;30159;49.316;8.558;2022-11-15T05:51:57;99936.19;;;11.04;100.00
44457;BME280;30159;49.316;8.558;2022-11-15T05:54:24;99932.19;;;11.02;100.00
44457;BME280;30159;49.316;8.558;2022-11-15T05:56:51;99874.19;;;10.66;100.00
44457;BME280;30159;49.316;8.558;2022-11-15T05:59:20;99942.63;;;11.08;100.00
44457;BME280;30159;49.316;8.558;2022-11-15T06:01:46;99922.88;;;10.94;100.00
44457;BME280;30159;49.316;8.558;2022-11-15T06:04:13;99944.28;;;11.04;100.00
44457;BME280;30159;49.316;8.558;2022-11-15T06:06:40;99941.22;;;11.11;100.00
44457;BME280;30159;49.316;8.558;2022-11-15T06:09:06;99920.94;;;11.13;100.00
44457;BME280;30159;49.316;8.558;2022-11-15T06:11:33;99927.88;;;11.20;100.00
44457;BME280;30159;49.316;8.558;2022-11-15T06:13:59;99926.97;;;11.24;100.00
44457;BME280;30159;49.316;8.558;2022-11-15T06:16:27;99923.13;;;11.11;100.00
44457;BME280;30159;49.316;8.558;2022-11-15T06:18:54;99929.28;;;10.98;100.00
44457;BME280;30159;49.316;8.558;2022-11-15T06:21:20;99936.72;;;11.06;100.00
44457;BME280;30159;49.316;8.558;2022-11-15T06:23:47;99933.13;;;11.11;100.00
44457;BME280;30159;49.316;8.558;2022-11-15T06:26:13;99932.47;;;11.00;100.00
44457;BME280;30159;49.316;8.558;2022-11-15T06:28:40;99937.06;;;11.00;100.00
44457;BME280;30159;49.316;8.558;2022-11-15T06:31:08;99929.13;;;11.08;100.00
44457;BME280;30159;49.316;8.558;2022-11-15T06:33:37;99935.13;;;11.05;100.00
44457;BME280;30159;49.316;8.558;2022-11-15T06:36:06;99925.72;;;11.03;100.00
44457;BME280;30159;49.316;8.558;2022-11-15T06:38:33;99927.53;;;11.07;100.00
44457;BME280;30159;49.316;8.558;2022-11-15T06:41:04;99924.22;;;11.10;100.00
44457;BME280;30159;49.316;8.558;2022-11-15T06:43:32;99933.34;;;11.14;100.00
44457;BME280;30159;49.316;8.558;2022-11-15T06:45:59;99888.81;;;10.98;100.00
44457;BME280;30159;49.316;8.558;2022-11-15T06:48:26;99924.91;;;11.35;100.00
44457;BME280;30159;49.316;8.558;2022-11-15T06:50:55;99924.22;;;11.43;100.00
44457;BME280;30159;49.316;8.558;2022-11-15T06:53:22;99884.16;;;11.17;100.00
44457;BME280;30159;49.316;8.558;2022-11-15T06:55:50;99918.22;;;11.46;100.00
44457;BME280;30159;49.316;8.558;2022-11-15T06:58:16;99912.25;;;11.49;100.00
44457;BME280;30159;49.316;8.558;2022-11-15T07:00:43;99885.09;;;11.27;100.00
44457;BME280;30159;49.316;8.558;2022-11-15T07:03:10;99898.31;;;11.42;100.00
44457;BME280;30159;49.316;8.558;2022-11-15T07:05:36;99914.56;;;11.70;100.00
44457;BME280;30159;49.316;8.558;2022-11-15T07:08:04;99908.06;;;11.71;100.00
44457;BME280;30159;49.316;8.558;2022-11-15T07:10:31;99924.09;;;11.81;100.00
44457;BME280;30159;49.316;8.558;2022-11-15T07:12:57;99923.97;;;11.86;100.00
44457;BME280;30159;49.316;8.558;2022-11-15T07:15:25;99892.25;;;11.64;100.00
44457;BME280;30159;49.316;8.558;2022-11-15T07:17:52;99938.53;;;11.90;100.00
44457;BME280;30159;49.316;8.558;2022-11-15T07:20:18;99943.56;;;11.97;100.00
44457;BME280;30159;49.316;8.558;2022-11-15T07:22:45;99938.16;;;11.97;100.00
44457;BME280;30159;49.316;8.558;2022-11-15T07:25:13;99927.72;;;11.90;100.00
44457;BME280;30159;49.316;8.558;2022-11-15T07:27:39;99926.03;;;11.94;100.00
44457;BME280;30159;49.316;8.558;2022-11-15T07:30:07;99932.34;;;11.90;100.00
44457;BME280;30159;49.316;8.558;2022-11-15T07:32:34;99872.41;;;11.41;100.00
44457;BME280;30159;49.316;8.558;2022-11-15T07:35:01;99935.16;;;11.98;100.00
44457;BME280;30159;49.316;8.558;2022-11-15T07:37:27;99942.16;;;11.99;100.00
44457;BME280;30159;49.316;8.558;2022-11-15T07:39:54;99938.03;;;12.02;100.00
44457;BME280;30159;49.316;8.558;2022-11-15T07:42:22;99945.69;;;11.81;100.00
44457;BME280;30159;49.316;8.558;2022-11-15T07:45:06;99947.25;;;12.01;100.00
44457;BME280;30159;49.316;8.558;2022-11-15T07:47:33;99946.53;;;11.95;100.00
44457;BME280;30159;49.316;8.558;2022-11-15T07:49:59;99948.16;;;11.96;100.00
44457;BME280;30159;49.316;8.558;2022-11-15T07:52:26;99945.47;;;11.96;100.00
44457;BME280;30159;49.316;8.558;2022-11-15T07:54:52;99950.97;;;12.05;100.00
44457;BME280;30159;49.316;8.558;2022-11-15T07:57:19;99947.56;;;12.27;100.00
44457;BME280;30159;49.316;8.558;2022-11-15T07:59:47;99942.94;;;12.14;100.00
44457;BME280;30159;49.316;8.558;2022-11-15T08:02:13;99947.34;;;12.23;100.00
44457;BME280;30159;49.316;8.558;2022-11-15T08:04:41;99945.63;;;12.28;100.00
44457;BME280;30159;49.316;8.558;2022-11-15T08:07:09;99946.25;;;12.38;100.00
44457;BME280;30159;49.316;8.558;2022-11-15T08:09:35;99941.34;;;12.40;100.00
44457;BME280;30159;49.316;8.558;2022-11-15T08:12:02;99936.69;;;12.55;100.00
44457;BME280;30159;49.316;8.558;2022-11-15T08:14:28;99935.28;;;12.57;100.00
44457;BME280;30159;49.316;8.558;2022-11-15T08:16:56;99922.44;;;12.63;100.00
44457;BME280;30159;49.316;8.558;2022-11-15T08:19:23;99923.16;;;12.69;100.00
44457;BME280;30159;49.316;8.558;2022-11-15T08:21:49;99927.22;;;12.80;100.00
44457;BME280;30159;49.316;8.558;2022-11-15T08:24:16;99928.41;;;12.88;100.00
44457;BME280;30159;49.316;8.558;2022-11-15T08:26:43;99923.34;;;12.95;98.49
44457;BME280;30159;49.316;8.558;2022-11-15T08:29:10;99927.78;;;12.91;99.10
44457;BME280;30159;49.316;8.558;2022-11-15T08:31:36;99922.97;;;12.88;100.00
44457;BME280;30159;49.316;8.558;2022-11-15T08:34:05;99889.44;;;12.75;100.00
44457;BME280;30159;49.316;8.558;2022-11-15T08:36:32;99922.19;;;13.10;100.00
44457;BME280;30159;49.316;8.558;2022-11-15T08:38:59;99919.59;;;13.27;100.00
44457;BME280;30159;49.316;8.558;2022-11-15T08:41:28;99912.66;;;13.35;98.71
44457;BME280;30159;49.316;8.558;2022-11-15T08:43:56;99894.94;;;13.28;96.85
44457;BME280;30159;49.316;8.558;2022-11-15T08:46:23;99907.59;;;13.42;96.15
44457;BME280;30159;49.316;8.558;2022-11-15T08:48:49;99886.69;;;13.34;97.12
44457;BME280;30159;49.316;8.558;2022-11-15T08:51:17;99915.66;;;13.56;96.20
44457;BME280;30159;49.316;8.558;2022-11-15T08:53:44;99909.56;;;13.50;97.75
44457;BME280;30159;49.316;8.558;2022-11-15T08:56:12;99914.34;;;13.53;97.73
44457;BME280;30159;49.316;8.558;2022-11-15T08:58:39;99907.97;;;13.49;98.45
44457;BME280;30159;49.316;8.558;2022-11-15T09:01:05;99898.91;;;13.54;99.45
44457;BME280;30159;49.316;8.558;2022-11-15T09:03:32;99912.28;;;13.50;99.23
44457;BME280;30159;49.316;8.558;2022-11-15T09:05:59;99914.84;;;13.55;98.85
44457;BME280;30159;49.316;8.558;2022-11-15T09:08:30;99916.97;;;13.67;98.38
44457;BME280;30159;49.316;8.558;2022-11-15T09:10:57;99856.00;;;13.47;97.07
44457;BME280;30159;49.316;8.558;2022-11-15T09:13:24;99914.09;;;14.03;95.97
44457;BME280;30159;49.316;8.558;2022-11-15T09:15:50;99920.66;;;14.11;96.07
44457;BME280;30159;49.316;8.558;2022-11-15T09:18:17;99914.97;;;14.30;93.33
44457;BME280;30159;49.316;8.558;2022-11-15T09:20:43;99907.78;;;14.34;93.11
44457;BME280;30159;49.316;8.558;2022-11-15T09:23:10;99915.31;;;14.46;92.64
44457;BME280;30159;49.316;8.558;2022-11-15T09:25:38;99907.81;;;14.51;92.10
44457;BME280;30159;49.316;8.558;2022-11-15T09:28:06;99902.19;;;14.30;92.55
44457;BME280;30159;49.316;8.558;2022-11-15T09:30:32;99902.66;;;14.24;93.04
44457;BME280;30159;49.316;8.558;2022-11-15T09:33:06;99904.00;;;14.52;93.64
44457;BME280;30159;49.316;8.558;2022-11-15T09:35:33;99898.44;;;14.66;92.42
44457;BME280;30159;49.316;8.558;2022-11-15T09:37:59;99905.31;;;14.81;92.09
44457;BME280;30159;49.316;8.558;2022-11-15T09:40:26;99894.44;;;14.99;91.82
44457;BME280;30159;49.316;8.558;2022-11-15T09:43:07;99902.44;;;15.04;91.23
44457;BME280;30159;49.316;8.558;2022-11-15T09:45:41;99926.38;;;14.84;89.55
44457;BME280;30159;49.316;8.558;2022-11-15T09:48:47;99896.69;;;14.70;89.06
44457;BME280;30159;49.316;8.558;2022-11-15T09:51:22;99888.53;;;14.88;90.44
44457;BME280;30159;49.316;8.558;2022-11-15T09:53:57;99894.44;;;14.99;88.46
44457;BME280;30159;49.316;8.558;2022-11-15T09:56:26;99895.88;;;15.05;89.04
44457;BME280;30159;49.316;8.558;2022-11-15T09:59:01;99885.31;;;15.03;87.86
44457;BME280;30159;49.316;8.558;2022-11-15T10:01:39;99889.00;;;14.99;89.48
44457;BME280;30159;49.316;8.558;2022-11-15T10:04:08;99897.09;;;15.33;88.16
44457;BME280;30159;49.316;8.558;2022-11-15T10:06:37;99892.78;;;15.32;85.75
44457;BME280;30159;49.316;8.558;2022-11-15T10:09:09;99887.16;;;15.46;85.17
44457;BME280;30159;49.316;8.558;2022-11-15T10:11:39;99887.44;;;15.53;84.05
44457;BME280;30159;49.316;8.558;2022-11-15T10:14:11;99881.25;;;15.35;87.02
44457;BME280;30159;49.316;8.558;2022-11-15T10:19:46;99883.34;;;15.38;86.12
44457;BME280;30159;49.316;8.558;2022-11-15T10:22:25;99874.84;;;15.49;85.98
44457;BME280;30159;49.316;8.558;2022-11-15T10:25:00;99875.13;;;15.56;85.98
44457;BME280;30159;49.316;8.558;2022-11-15T10:27:36;99866.06;;;15.43;86.23
44457;BME280;30159;49.316;8.558;2022-11-15T10:30:11;99865.75;;;15.36;86.12
44457;BME280;30159;49.316;8.558;2022-11-15T10:32:39;99860.75;;;15.47;85.14
44457;BME280;30159;49.316;8.558;2022-11-15T10:35:17;99853.09;;;15.49;85.29
44457;BME280;30159;49.316;8.558;2022-11-15T10:37:44;99858.81;;;15.56;86.16
44457;BME280;30159;49.316;8.558;2022-11-15T10:40:17;99856.75;;;15.53;86.47
44457;BME280;30159;49.316;8.558;2022-11-15T10:42:43;99841.69;;;15.64;86.58
44457;BME280;30159;49.316;8.558;2022-11-15T10:45:25;99850.94;;;15.63;85.97
44457;BME280;30159;49.316;8.558;2022-11-15T10:47:52;99858.13;;;15.76;85.99
44457;BME280;30159;49.316;8.558;2022-11-15T10:50:29;99842.66;;;15.98;84.39
44457;BME280;30159;49.316;8.558;2022-11-15T10:52:56;99807.75;;;15.70;85.44
44457;BME280;30159;49.316;8.558;2022-11-15T10:55:26;99839.19;;;15.89;86.56
44457;BME280;30159;49.316;8.558;2022-11-15T10:57:55;99821.03;;;15.72;88.19
44457;BME280;30159;49.316;8.558;2022-11-15T11:00:35;99823.25;;;15.78;85.66
44457;BME280;30159;49.316;8.558;2022-11-15T11:03:05;99828.97;;;15.86;86.55
44457;BME280;30159;49.316;8.558;2022-11-15T11:05:33;99822.84;;;15.89;86.40
44457;BME280;30159;49.316;8.558;2022-11-15T11:08:03;99763.19;;;15.54;86.56
44457;BME280;30159;49.316;8.558;2022-11-15T11:10:30;99814.50;;;15.94;87.40
44457;BME280;30159;49.316;8.558;2022-11-15T11:13:12;99806.03;;;15.95;86.08
44457;BME280;30159;49.316;8.558;2022-11-15T11:15:43;99788.75;;;15.91;85.99
44457;BME280;30159;49.316;8.558;2022-11-15T11:18:16;99789.94;;;15.82;86.88
44457;BME280;30159;49.316;8.558;2022-11-15T11:20:50;99789.94;;;15.82;87.20
44457;BME280;30159;49.316;8.558;2022-11-15T11:23:35;99785.25;;;15.91;89.05
44457;BME280;30159;49.316;8.558;2022-11-15T11:26:26;99774.13;;;16.05;87.19
44457;BME280;30159;49.316;8.558;2022-11-15T11:29:02;99771.47;;;16.17;86.86
44457;BME280;30159;49.316;8.558;2022-11-15T11:31:41;99768.25;;;16.36;87.17
44457;BME280;30159;49.316;8.558;2022-11-15T11:34:15;99772.59;;;16.37;84.38
44457;BME280;30159;49.316;8.558;2022-11-15T11:36:51;99769.09;;;16.15;84.41
44457;BME280;30159;49.316;8.558;2022-11-15T11:39:31;99756.28;;;16.16;84.83
44457;BME280;30159;49.316;8.558;2022-11-15T11:42:13;99754.66;;;15.94;86.66
44457;BME280;30159;49.316;8.558;2022-11-15T11:44:50;99757.66;;;16.01;85.59
44457;BME280;30159;49.316;8.558;2022-11-15T11:47:24;99694.31;;;15.79;85.15
44457;BME280;30159;49.316;8.558;2022-11-15T11:49:52;99741.19;;;16.18;84.97
44457;BME280;30159;49.316;8.558;2022-11-15T11:52:24;99748.69;;;16.21;85.00
44457;BME280;30159;49.316;8.558;2022-11-15T11:54:59;99748.63;;;16.30;85.38
44457;BME280;30159;49.316;8.558;2022-11-15T11:57:34;99742.97;;;16.35;84.32
44457;BME280;30159;49.316;8.558;2022-11-15T12:00:14;99735.81;;;16.31;83.89
44457;BME280;30159;49.316;8.558;2022-11-15T12:02:47;99728.91;;;16.33;83.12
44457;BME280;30159;49.316;8.558;2022-11-15T12:05:21;99665.50;;;15.57;83.69
44457;BME280;30159;49.316;8.558;2022-11-15T12:07:49;99715.38;;;16.04;84.34
44457;BME280;30159;49.316;8.558;2022-11-15T12:10:22;99717.50;;;16.19;86.22
44457;BME280;30159;49.316;8.558;2022-11-15T12:12:55;99708.44;;;16.48;85.33
44457;BME280;30159;49.316;8.558;2022-11-15T12:15:27;99696.78;;;16.60;83.71
44457;BME280;30159;49.316;8.558;2022-11-15T12:17:56;99704.69;;;16.86;81.70
44457;BME280;30159;49.316;8.558;2022-11-15T12:20:25;99702.19;;;16.93;82.58
44457;BME280;30159;49.316;8.558;2022-11-15T12:22:55;99688.44;;;16.90;82.41
44457;BME280;30159;49.316;8.558;2022-11-15T12:25:29;99652.63;;;16.54;81.37
44457;BME280;30159;49.316;8.558;2022-11-15T12:28:00;99673.47;;;16.50;82.97
44457;BME280;30159;49.316;8.558;2022-11-15T12:30:40;99679.13;;;16.33;82.39
44457;BME280;30159;49.316;8.558;2022-11-15T12:33:29;99677.09;;;16.42;84.29
44457;BME280;30159;49.316;8.558;2022-11-15T12:36:01;99641.56;;;16.26;84.05
44457;BME280;30159;49.316;8.558;2022-11-15T12:38:52;99667.78;;;16.43;85.08
44457;BME280;30159;49.316;8.558;2022-11-15T12:41:20;99665.06;;;16.31;85.02
44457;BME280;30159;49.316;8.558;2022-11-15T12:43:49;99668.47;;;16.40;84.36
44457;BME280;30159;49.316;8.558;2022-11-15T12:46:22;99665.81;;;16.19;84.46
44457;BME280;30159;49.316;8.558;2022-11-15T12:48:57;99661.25;;;16.11;86.54
44457;BME280;30159;49.316;8.558;2022-11-15T12:55:01;99660.28;;;16.28;86.49
44457;BME280;30159;49.316;8.558;2022-11-15T12:57:35;99661.28;;;16.23;86.66
44457;BME280;30159;49.316;8.558;2022-11-15T13:03:25;99657.78;;;16.22;86.51
44457;BME280;30159;49.316;8.558;2022-11-15T13:06:02;99636.19;;;16.17;85.94
44457;BME280;30159;49.316;8.558;2022-11-15T13:08:45;99640.88;;;16.29;85.92
44457;BME280;30159;49.316;8.558;2022-11-15T13:11:41;99637.84;;;16.31;86.48
44457;BME280;30159;49.316;8.558;2022-11-15T13:14:42;99633.19;;;16.31;85.68
44457;BME280;30159;49.316;8.558;2022-11-15T13:17:27;99630.69;;;16.38;86.77